createdAt,value
2023-04-02T00:00:33.699Z,5.10
2023-04-02T00:01:33.673Z,5.08
2023-04-02T00:02:33.702Z,5.08
2023-04-02T00:03:33.691Z,5.07
2023-04-02T00:04:33.795Z,5.10
2023-04-02T00:05:33.831Z,5.05
2023-04-02T00:06:33.620Z,5.04
2023-04-02T00:07:33.596Z,5.02
2023-04-02T00:08:33.601Z,5.02
2023-04-02T00:09:33.673Z,5.02
2023-04-02T00:10:33.549Z,5.02
2023-04-02T00:11:33.551Z,5.02
2023-04-02T00:12:33.620Z,4.99
2023-04-02T00:13:33.555Z,5.00
2023-04-02T00:14:33.612Z,5.00
2023-04-02T00:15:33.813Z,4.97
2023-04-02T00:16:33.544Z,4.99
2023-04-02T00:17:33.486Z,4.99
2023-04-02T00:18:33.570Z,5.00
2023-04-02T00:19:33.502Z,5.00
2023-04-02T00:20:33.440Z,4.99
2023-04-02T00:21:33.434Z,4.97
2023-04-02T00:22:33.405Z,4.96
2023-04-02T00:23:33.413Z,4.94
2023-04-02T00:24:33.445Z,4.97
2023-04-02T00:25:33.571Z,4.96
2023-04-02T00:26:33.386Z,4.97
2023-04-02T00:27:33.393Z,4.96
2023-04-02T00:28:33.350Z,4.97
2023-04-02T00:29:33.387Z,4.94
2023-04-02T00:30:33.334Z,4.90
2023-04-02T00:31:33.345Z,4.89
2023-04-02T00:32:33.356Z,4.89
2023-04-02T00:33:33.279Z,4.89
2023-04-02T00:34:33.322Z,4.90
2023-04-02T00:35:33.572Z,4.87
2023-04-02T00:36:33.277Z,4.84
2023-04-02T00:37:33.263Z,4.84
2023-04-02T00:38:33.232Z,4.84
2023-04-02T00:39:33.280Z,4.86
2023-04-02T00:40:33.240Z,4.84
2023-04-02T00:41:33.217Z,4.86
2023-04-02T00:42:33.188Z,4.86
2023-04-02T00:43:33.176Z,4.84
2023-04-02T00:44:33.197Z,4.86
2023-04-02T00:45:33.461Z,4.82
2023-04-02T00:46:33.149Z,4.84
2023-04-02T00:47:33.166Z,4.82
2023-04-02T00:48:33.115Z,4.84
2023-04-02T00:49:33.142Z,4.80
2023-04-02T00:50:33.109Z,4.80
2023-04-02T00:51:33.090Z,4.77
2023-04-02T00:52:33.080Z,4.77
2023-04-02T00:53:33.051Z,4.74
2023-04-02T00:54:33.090Z,4.75
2023-04-02T00:55:33.232Z,4.73
2023-04-02T00:56:33.021Z,4.70
2023-04-02T00:57:33.087Z,4.68
2023-04-02T00:58:33.001Z,4.66
2023-04-02T00:59:33.027Z,4.63
2023-04-02T01:00:32.957Z,4.63
2023-04-02T01:01:33.029Z,4.63
2023-04-02T01:02:33.066Z,4.60
2023-04-02T01:03:33.139Z,4.59
2023-04-02T01:04:32.969Z,4.59
2023-04-02T01:05:33.189Z,4.56
2023-04-02T01:06:32.904Z,4.55
2023-04-02T01:07:32.905Z,4.52
2023-04-02T01:08:32.883Z,4.49
2023-04-02T01:09:32.942Z,4.48
2023-04-02T01:10:32.865Z,4.48
2023-04-02T01:11:32.841Z,4.45
2023-04-02T01:12:32.829Z,4.48
2023-04-02T01:13:32.825Z,4.48
2023-04-02T01:14:32.940Z,4.44
2023-04-02T01:15:32.946Z,4.45
2023-04-02T01:16:32.951Z,4.42
2023-04-02T01:17:32.802Z,4.44
2023-04-02T01:18:32.784Z,4.41
2023-04-02T01:19:32.799Z,4.42
2023-04-02T01:20:32.737Z,4.42
2023-04-02T01:21:32.742Z,4.40
2023-04-02T01:22:32.700Z,4.38
2023-04-02T01:23:32.699Z,4.37
2023-04-02T01:24:32.730Z,4.35
2023-04-02T01:25:32.696Z,4.34
2023-04-02T01:26:32.778Z,4.34
2023-04-02T01:27:32.647Z,4.32
2023-04-02T01:28:32.664Z,4.32
2023-04-02T01:29:32.674Z,4.31
2023-04-02T01:30:32.624Z,4.32
2023-04-02T01:31:32.661Z,4.31
2023-04-02T01:32:32.626Z,4.30
2023-04-02T01:33:32.598Z,4.28
2023-04-02T01:34:32.634Z,4.28
2023-04-02T01:35:32.778Z,4.28
2023-04-02T01:36:32.590Z,4.28
2023-04-02T01:37:32.553Z,4.24
2023-04-02T01:38:32.519Z,4.26
2023-04-02T01:39:32.563Z,4.24
2023-04-02T01:40:32.513Z,4.24
2023-04-02T01:41:32.543Z,4.24
2023-04-02T01:42:32.513Z,4.26
2023-04-02T01:43:32.499Z,4.22
2023-04-02T01:44:32.546Z,4.22
2023-04-02T01:45:32.843Z,4.22
2023-04-02T01:46:32.524Z,4.22
2023-04-02T01:47:32.478Z,4.23
2023-04-02T01:48:32.434Z,4.23
2023-04-02T01:49:32.412Z,4.24
2023-04-02T01:50:32.439Z,4.23
2023-04-02T01:51:32.375Z,4.24
2023-04-02T01:52:32.392Z,4.24
2023-04-02T01:53:32.371Z,4.23
2023-04-02T01:54:32.349Z,4.24
2023-04-02T01:55:32.592Z,4.22
2023-04-02T01:56:32.322Z,4.24
2023-04-02T01:57:32.345Z,4.24
2023-04-02T01:58:32.321Z,4.24
2023-04-02T01:59:32.311Z,4.24
2023-04-02T02:00:32.377Z,4.24
2023-04-02T02:01:32.292Z,4.24
2023-04-02T02:02:32.325Z,4.24
2023-04-02T02:03:32.250Z,4.19
2023-04-02T02:04:32.282Z,4.17
2023-04-02T02:05:32.415Z,4.14
2023-04-02T02:06:32.227Z,4.16
2023-04-02T02:07:32.215Z,4.13
2023-04-02T02:08:32.210Z,4.12
2023-04-02T02:09:32.198Z,4.13
2023-04-02T02:10:32.224Z,4.13
2023-04-02T02:11:32.172Z,4.10
2023-04-02T02:12:32.150Z,4.08
2023-04-02T02:13:32.172Z,4.06
2023-04-02T02:14:32.128Z,4.06
2023-04-02T02:15:32.181Z,4.04
2023-04-02T02:16:32.219Z,4.05
2023-04-02T02:17:32.153Z,4.01
2023-04-02T02:18:32.101Z,4.02
2023-04-02T02:19:32.075Z,4.02
2023-04-02T02:20:32.098Z,4.02
2023-04-02T02:21:32.055Z,3.99
2023-04-02T02:22:32.044Z,3.99
2023-04-02T02:23:32.025Z,3.96
2023-04-02T02:24:32.050Z,3.98
2023-04-02T02:25:32.178Z,3.94
2023-04-02T02:26:32.010Z,3.94
2023-04-02T02:27:32.031Z,3.91
2023-04-02T02:28:31.963Z,3.88
2023-04-02T02:29:31.966Z,3.88
2023-04-02T02:30:32.008Z,3.88
2023-04-02T02:31:31.965Z,3.86
2023-04-02T02:32:31.941Z,3.86
2023-04-02T02:33:31.909Z,3.83
2023-04-02T02:34:31.920Z,3.83
2023-04-02T02:35:31.952Z,3.83
2023-04-02T02:36:31.888Z,3.80
2023-04-02T02:37:31.880Z,3.80
2023-04-02T02:38:31.876Z,3.78
2023-04-02T02:39:31.857Z,3.80
2023-04-02T02:40:31.890Z,3.80
2023-04-02T02:41:31.836Z,3.77
2023-04-02T02:42:31.837Z,3.77
2023-04-02T02:43:31.806Z,3.76
2023-04-02T02:44:31.791Z,3.77
2023-04-02T02:45:31.841Z,3.76
2023-04-02T02:46:31.827Z,3.77
2023-04-02T02:47:31.816Z,3.76
2023-04-02T02:48:31.735Z,3.78
2023-04-02T02:49:31.723Z,3.77
2023-04-02T02:50:31.804Z,3.76
2023-04-02T02:51:31.710Z,3.74
2023-04-02T02:52:31.702Z,3.76
2023-04-02T02:53:31.688Z,3.74
2023-04-02T02:54:31.684Z,3.73
2023-04-02T02:55:31.740Z,3.73
2023-04-02T02:56:31.692Z,3.70
2023-04-02T02:57:31.748Z,3.70
2023-04-02T02:58:31.636Z,3.69
2023-04-02T02:59:31.652Z,3.69
2023-04-02T03:00:31.653Z,3.70
2023-04-02T03:01:31.640Z,3.70
2023-04-02T03:02:31.653Z,3.69
2023-04-02T03:03:31.773Z,3.69
2023-04-02T03:04:31.557Z,3.68
2023-04-02T03:05:31.596Z,3.65
2023-04-02T03:06:31.539Z,3.68
2023-04-02T03:07:31.530Z,3.68
2023-04-02T03:08:31.528Z,3.66
2023-04-02T03:09:31.496Z,3.66
2023-04-02T03:10:31.528Z,3.69
2023-04-02T03:11:31.498Z,3.68
2023-04-02T03:12:31.530Z,3.69
2023-04-02T03:13:31.489Z,3.66
2023-04-02T03:14:31.442Z,3.69
2023-04-02T03:15:31.505Z,3.68
2023-04-02T03:16:31.423Z,3.69
2023-04-02T03:17:31.444Z,3.68
2023-04-02T03:18:31.394Z,3.68
2023-04-02T03:19:31.377Z,3.66
2023-04-02T03:20:31.478Z,3.66
2023-04-02T03:21:31.371Z,3.65
2023-04-02T03:22:31.356Z,3.65
2023-04-02T03:23:31.346Z,3.65
2023-04-02T03:24:31.349Z,3.65
2023-04-02T03:25:31.370Z,3.63
2023-04-02T03:26:31.313Z,3.65
2023-04-02T03:27:31.316Z,3.65
2023-04-02T03:28:31.272Z,3.65
2023-04-02T03:29:31.322Z,3.63
2023-04-02T03:30:31.315Z,3.63
2023-04-02T03:31:31.300Z,3.62
2023-04-02T03:32:31.289Z,3.63
2023-04-02T03:33:31.241Z,3.62
2023-04-02T03:34:31.197Z,3.60
2023-04-02T03:35:31.251Z,3.60
2023-04-02T03:36:31.188Z,3.60
2023-04-02T03:37:31.186Z,3.60
2023-04-02T03:38:31.168Z,3.60
2023-04-02T03:39:31.167Z,3.59
2023-04-02T03:40:31.198Z,3.58
2023-04-02T03:41:31.136Z,3.59
2023-04-02T03:42:31.130Z,3.58
2023-04-02T03:43:31.108Z,3.58
2023-04-02T03:44:31.114Z,3.58
2023-04-02T03:45:31.139Z,3.59
2023-04-02T03:46:31.099Z,3.58
2023-04-02T03:47:31.120Z,3.55
2023-04-02T03:48:31.048Z,3.55
2023-04-02T03:49:31.045Z,3.55
2023-04-02T03:50:31.094Z,3.56
2023-04-02T03:51:31.025Z,3.53
2023-04-02T03:52:31.018Z,3.53
2023-04-02T03:53:31.012Z,3.53
2023-04-02T03:54:30.979Z,3.53
2023-04-02T03:55:31.018Z,3.53
2023-04-02T03:56:30.964Z,3.53
2023-04-02T03:57:31.015Z,3.51
2023-04-02T03:58:30.944Z,3.51
2023-04-02T03:59:30.966Z,3.50
2023-04-02T04:00:30.966Z,3.51
2023-04-02T04:01:30.902Z,3.50
2023-04-02T04:02:30.970Z,3.51
2023-04-02T04:03:30.897Z,3.50
2023-04-02T04:04:30.950Z,3.50
2023-04-02T04:05:30.907Z,3.48
2023-04-02T04:06:30.854Z,3.50
2023-04-02T04:07:30.834Z,3.47
2023-04-02T04:08:30.830Z,3.50
2023-04-02T04:09:30.811Z,3.48
2023-04-02T04:10:30.848Z,3.48
2023-04-02T04:11:30.828Z,3.50
2023-04-02T04:12:30.789Z,3.48
2023-04-02T04:13:30.764Z,3.50
2023-04-02T04:14:30.767Z,3.50
2023-04-02T04:15:30.780Z,3.50
2023-04-02T04:16:30.762Z,3.50
2023-04-02T04:17:30.752Z,3.48
2023-04-02T04:18:30.718Z,3.47
2023-04-02T04:19:30.707Z,3.48
2023-04-02T04:20:30.729Z,3.48
2023-04-02T04:21:30.692Z,3.48
2023-04-02T04:22:30.716Z,3.48
2023-04-02T04:23:30.724Z,3.48
2023-04-02T04:24:30.639Z,3.48
2023-04-02T04:25:30.722Z,3.50
2023-04-02T04:26:30.623Z,3.47
2023-04-02T04:27:30.597Z,3.48
2023-04-02T04:28:30.608Z,3.48
2023-04-02T04:29:30.597Z,3.47
2023-04-02T04:30:30.619Z,3.48
2023-04-02T04:31:30.611Z,3.48
2023-04-02T04:32:30.581Z,3.48
2023-04-02T04:33:30.539Z,3.48
2023-04-02T04:34:30.539Z,3.50
2023-04-02T04:35:30.609Z,3.47
2023-04-02T04:36:30.508Z,3.50
2023-04-02T04:37:30.488Z,3.48
2023-04-02T04:38:30.487Z,3.47
2023-04-02T04:39:30.470Z,3.45
2023-04-02T04:40:30.516Z,3.48
2023-04-02T04:41:30.457Z,3.48
2023-04-02T04:42:30.452Z,3.50
2023-04-02T04:43:30.436Z,3.48
2023-04-02T04:44:30.434Z,3.50
2023-04-02T04:45:30.455Z,3.48
2023-04-02T04:46:30.487Z,3.51
2023-04-02T04:47:30.408Z,3.48
2023-04-02T04:48:30.376Z,3.48
2023-04-02T04:49:30.365Z,3.48
2023-04-02T04:50:30.386Z,3.50
2023-04-02T04:51:30.334Z,3.48
2023-04-02T04:52:30.324Z,3.47
2023-04-02T04:53:30.321Z,3.47
2023-04-02T04:54:30.306Z,3.50
2023-04-02T04:55:30.347Z,3.48
2023-04-02T04:56:30.287Z,3.50
2023-04-02T04:57:30.309Z,3.48
2023-04-02T04:58:30.259Z,3.48
2023-04-02T04:59:30.274Z,3.48
2023-04-02T05:00:30.303Z,3.48
2023-04-02T05:01:30.274Z,3.47
2023-04-02T05:02:30.286Z,3.47
2023-04-02T05:03:30.233Z,3.48
2023-04-02T05:04:30.324Z,3.47
2023-04-02T05:05:30.223Z,3.47
2023-04-02T05:06:30.170Z,3.50
2023-04-02T05:07:30.175Z,3.48
2023-04-02T05:08:30.145Z,3.47
2023-04-02T05:09:30.150Z,3.48
2023-04-02T05:10:30.194Z,3.48
2023-04-02T05:11:30.117Z,3.48
2023-04-02T05:12:30.081Z,3.50
2023-04-02T05:13:30.070Z,3.50
2023-04-02T05:14:30.082Z,3.51
2023-04-02T05:15:30.149Z,3.51
2023-04-02T05:16:30.127Z,3.50
2023-04-02T05:17:30.069Z,3.50
2023-04-02T05:18:30.030Z,3.51
2023-04-02T05:19:30.020Z,3.50
2023-04-02T05:20:30.059Z,3.51
2023-04-02T05:21:30.003Z,3.48
2023-04-02T05:22:29.980Z,3.50
2023-04-02T05:23:29.966Z,3.50
2023-04-02T05:24:29.970Z,3.50
2023-04-02T05:25:29.957Z,3.50
2023-04-02T05:26:29.996Z,3.51
2023-04-02T05:27:29.934Z,3.51
2023-04-02T05:28:29.930Z,3.51
2023-04-02T05:29:29.911Z,3.50
2023-04-02T05:30:29.942Z,3.51
2023-04-02T05:31:29.990Z,3.51
2023-04-02T05:32:29.874Z,3.51
2023-04-02T05:33:29.891Z,3.50
2023-04-02T05:34:29.857Z,3.53
2023-04-02T05:35:29.858Z,3.51
2023-04-02T05:36:29.882Z,3.55
2023-04-02T05:37:29.831Z,3.51
2023-04-02T05:38:29.805Z,3.53
2023-04-02T05:39:29.778Z,3.53
2023-04-02T05:40:29.776Z,3.56
2023-04-02T05:41:29.800Z,3.56
2023-04-02T05:42:29.767Z,3.53
2023-04-02T05:43:29.750Z,3.53
2023-04-02T05:44:29.746Z,3.55
2023-04-02T05:45:29.726Z,3.55
2023-04-02T05:46:29.853Z,3.56
2023-04-02T05:47:29.751Z,3.53
2023-04-02T05:48:29.691Z,3.55
2023-04-02T05:49:29.689Z,3.55
2023-04-02T05:50:29.686Z,3.56
2023-04-02T05:51:29.711Z,3.56
2023-04-02T05:52:29.636Z,3.59
2023-04-02T05:53:29.626Z,3.58
2023-04-02T05:54:29.610Z,3.59
2023-04-02T05:55:29.611Z,3.59
2023-04-02T05:56:29.656Z,3.60
2023-04-02T05:57:42.712Z,3.62
2023-04-02T05:58:36.169Z,3.62
2023-04-02T05:59:30.562Z,3.59
2023-04-02T06:00:29.641Z,3.59
2023-04-02T06:01:29.572Z,3.59
2023-04-02T06:02:29.702Z,3.62
2023-04-02T06:03:29.582Z,3.62
2023-04-02T06:04:29.509Z,3.63
2023-04-02T06:05:29.474Z,3.63
2023-04-02T06:06:29.511Z,3.66
2023-04-02T06:07:29.475Z,3.66
2023-04-02T06:08:29.451Z,3.62
2023-04-02T06:09:29.443Z,3.62
2023-04-02T06:10:29.459Z,3.60
2023-04-02T06:11:29.473Z,3.62
2023-04-02T06:12:29.405Z,3.65
2023-04-02T06:13:29.399Z,3.62
2023-04-02T06:14:29.390Z,3.63
2023-04-02T06:15:29.379Z,3.62
2023-04-02T06:16:29.483Z,3.65
2023-04-02T06:17:29.380Z,3.65
2023-04-02T06:18:29.340Z,3.66
2023-04-02T06:19:29.317Z,3.65
2023-04-02T06:20:29.400Z,3.66
2023-04-02T06:21:29.340Z,3.63
2023-04-02T06:22:29.301Z,3.63
2023-04-02T06:23:29.292Z,3.63
2023-04-02T06:24:29.273Z,3.62
2023-04-02T06:25:29.278Z,3.60
2023-04-02T06:26:29.299Z,3.62
2023-04-02T06:27:29.229Z,3.60
2023-04-02T06:28:29.230Z,3.62
2023-04-02T06:29:29.208Z,3.63
2023-04-02T06:30:29.200Z,3.66
2023-04-02T06:31:29.250Z,3.65
2023-04-02T06:32:29.202Z,3.65
2023-04-02T06:33:29.172Z,3.65
2023-04-02T06:34:29.151Z,3.65
2023-04-02T06:35:29.141Z,3.63
2023-04-02T06:36:29.192Z,3.65
2023-04-02T06:37:29.154Z,3.65
2023-04-02T06:38:29.122Z,3.65
2023-04-02T06:39:29.140Z,3.68
2023-04-02T06:40:29.127Z,3.68
2023-04-02T06:41:29.180Z,3.68
2023-04-02T06:42:29.085Z,3.69
2023-04-02T06:43:29.061Z,3.70
2023-04-02T06:44:29.071Z,3.74
2023-04-02T06:45:29.047Z,3.73
2023-04-02T06:46:29.097Z,3.73
2023-04-02T06:47:29.052Z,3.76
2023-04-02T06:48:29.007Z,3.76
2023-04-02T06:49:28.984Z,3.78
2023-04-02T06:50:28.988Z,3.80
2023-04-02T06:51:29.039Z,3.81
2023-04-02T06:52:28.959Z,3.81
2023-04-02T06:53:28.939Z,3.80
2023-04-02T06:54:28.941Z,3.81
2023-04-02T06:55:29.013Z,3.83
2023-04-02T06:56:28.962Z,3.83
2023-04-02T06:57:28.916Z,3.83
2023-04-02T06:58:28.889Z,3.84
2023-04-02T06:59:28.888Z,3.86
2023-04-02T07:00:28.869Z,3.88
2023-04-02T07:01:28.932Z,3.86
2023-04-02T07:02:28.890Z,3.86
2023-04-02T07:03:28.826Z,3.86
2023-04-02T07:04:28.823Z,3.87
2023-04-02T07:05:28.811Z,3.86
2023-04-02T07:06:28.854Z,3.83
2023-04-02T07:07:28.777Z,3.83
2023-04-02T07:08:28.772Z,3.86
2023-04-02T07:09:28.770Z,3.84
2023-04-02T07:10:28.752Z,3.88
2023-04-02T07:11:28.778Z,3.88
2023-04-02T07:12:28.724Z,3.88
2023-04-02T07:13:28.709Z,3.92
2023-04-02T07:14:28.701Z,3.94
2023-04-02T07:15:28.699Z,3.96
2023-04-02T07:16:28.794Z,3.95
2023-04-02T07:17:28.745Z,3.94
2023-04-02T07:18:28.660Z,3.96
2023-04-02T07:19:28.640Z,3.96
2023-04-02T07:20:28.649Z,3.98
2023-04-02T07:21:28.681Z,3.98
2023-04-02T07:22:28.631Z,4.01
2023-04-02T07:23:28.637Z,3.99
2023-04-02T07:24:28.586Z,4.02
2023-04-02T07:25:28.594Z,4.01
2023-04-02T07:26:28.621Z,4.05
2023-04-02T07:27:28.575Z,4.02
2023-04-02T07:28:28.586Z,4.02
2023-04-02T07:29:28.627Z,4.04
2023-04-02T07:30:28.549Z,4.06
2023-04-02T07:31:28.727Z,4.12
2023-04-02T07:32:28.648Z,4.12
2023-04-02T07:33:28.563Z,4.16
2023-04-02T07:34:28.657Z,4.16
2023-04-02T07:35:28.464Z,4.19
2023-04-02T07:36:28.569Z,4.20
2023-04-02T07:37:28.453Z,4.17
2023-04-02T07:38:28.441Z,4.20
2023-04-02T07:39:28.425Z,4.22
2023-04-02T07:40:28.408Z,4.24
2023-04-02T07:41:28.434Z,4.26
2023-04-02T07:42:28.392Z,4.31
2023-04-02T07:43:28.384Z,4.35
2023-04-02T07:44:28.391Z,4.38
2023-04-02T07:45:28.373Z,4.37
2023-04-02T07:46:28.442Z,4.40
2023-04-02T07:47:28.380Z,4.35
2023-04-02T07:48:28.345Z,4.35
2023-04-02T07:49:28.297Z,4.44
2023-04-02T07:50:28.336Z,4.49
2023-04-02T07:51:28.306Z,4.52
2023-04-02T07:52:28.321Z,4.59
2023-04-02T07:53:28.273Z,4.60
2023-04-02T07:54:28.264Z,4.67
2023-04-02T07:55:28.246Z,4.70
2023-04-02T07:56:28.232Z,4.66
2023-04-02T07:57:28.292Z,4.68
2023-04-02T07:58:28.192Z,4.73
2023-04-02T07:59:28.173Z,4.78
2023-04-02T08:00:28.180Z,4.80
2023-04-02T08:01:28.176Z,4.78
2023-04-02T08:02:28.306Z,4.67
2023-04-02T08:03:28.218Z,4.66
2023-04-02T08:04:28.153Z,4.71
2023-04-02T08:05:28.120Z,4.71
2023-04-02T08:06:28.123Z,4.68
2023-04-02T08:07:28.130Z,4.68
2023-04-02T08:08:28.098Z,4.70
2023-04-02T08:09:28.113Z,4.67
2023-04-02T08:10:28.071Z,4.62
2023-04-02T08:11:29.669Z,4.66
2023-04-02T08:12:28.082Z,4.62
2023-04-02T08:13:28.041Z,4.63
2023-04-02T08:14:28.023Z,4.70
2023-04-02T08:15:28.014Z,4.73
2023-04-02T08:16:28.028Z,4.74
2023-04-02T08:17:28.077Z,4.80
2023-04-02T08:18:27.990Z,4.82
2023-04-02T08:19:27.972Z,4.89
2023-04-02T08:20:27.944Z,4.96
2023-04-02T08:21:27.985Z,4.92
2023-04-02T08:22:27.980Z,4.90
2023-04-02T08:23:27.914Z,4.99
2023-04-02T08:24:27.903Z,5.10
2023-04-02T08:25:27.897Z,5.15
2023-04-02T08:26:27.874Z,5.15
2023-04-02T08:27:27.918Z,5.23
2023-04-02T08:28:27.870Z,5.33
2023-04-02T08:29:27.869Z,5.46
2023-04-02T08:30:27.851Z,5.38
2023-04-02T08:31:27.976Z,5.28
2023-04-02T08:32:27.871Z,5.18
2023-04-02T08:33:27.858Z,5.14
2023-04-02T08:34:27.790Z,5.20
2023-04-02T08:35:27.797Z,5.29
2023-04-02T08:36:27.785Z,5.11
2023-04-02T08:37:27.813Z,4.99
2023-04-02T08:38:27.765Z,4.96
2023-04-02T08:39:27.742Z,5.02
2023-04-02T08:40:27.735Z,5.07
2023-04-02T08:41:27.832Z,4.96
2023-04-02T08:42:27.747Z,4.93
2023-04-02T08:43:27.767Z,4.96
2023-04-02T08:44:27.692Z,5.05
2023-04-02T08:45:27.682Z,5.07
2023-04-02T08:46:27.708Z,5.04
2023-04-02T08:47:27.699Z,5.08
2023-04-02T08:48:27.633Z,5.05
2023-04-02T08:49:27.636Z,5.12
2023-04-02T08:50:27.629Z,5.14
2023-04-02T08:51:27.586Z,5.17
2023-04-02T08:52:27.620Z,5.18
2023-04-02T08:53:27.586Z,5.30
2023-04-02T08:54:28.093Z,5.30
2023-04-02T08:55:27.572Z,5.33
2023-04-02T08:56:27.554Z,5.33
2023-04-02T08:57:27.649Z,5.25
2023-04-02T08:58:27.534Z,5.30
2023-04-02T08:59:27.567Z,5.26
2023-04-02T09:00:27.508Z,5.26
2023-04-02T09:01:27.570Z,5.21
2023-04-02T09:02:27.545Z,5.32
2023-04-02T09:03:27.667Z,5.32
2023-04-02T09:04:27.482Z,5.39
2023-04-02T09:05:27.448Z,5.39
2023-04-02T09:06:27.424Z,5.35
2023-04-02T09:07:27.475Z,5.36
2023-04-02T09:08:27.412Z,5.46
2023-04-02T09:09:27.395Z,5.50
2023-04-02T09:10:27.397Z,5.50
2023-04-02T09:11:27.473Z,5.36
2023-04-02T09:12:27.413Z,5.50
2023-04-02T09:13:27.354Z,5.54
2023-04-02T09:14:27.370Z,5.57
2023-04-02T09:15:27.322Z,5.62
2023-04-02T09:16:27.407Z,5.79
2023-04-02T09:17:27.376Z,5.84
2023-04-02T09:18:27.323Z,5.84
2023-04-02T09:19:27.267Z,5.73
2023-04-02T09:20:27.255Z,5.61
2023-04-02T09:21:27.251Z,5.54
2023-04-02T09:22:27.278Z,5.54
2023-04-02T09:23:27.227Z,5.44
2023-04-02T09:24:27.214Z,5.46
2023-04-02T09:25:27.230Z,5.54
2023-04-02T09:26:27.218Z,5.65
2023-04-02T09:27:27.232Z,5.84
2023-04-02T09:28:27.194Z,5.73
2023-04-02T09:29:27.167Z,5.66
2023-04-02T09:30:27.136Z,5.59
2023-04-02T09:31:27.170Z,5.75
2023-04-02T09:32:27.183Z,5.62
2023-04-02T09:33:27.117Z,5.57
2023-04-02T09:34:27.105Z,5.51
2023-04-02T09:35:27.280Z,5.35
2023-04-02T09:36:27.129Z,5.39
2023-04-02T09:37:27.142Z,5.39
2023-04-02T09:38:27.054Z,5.35
2023-04-02T09:39:27.052Z,5.39
2023-04-02T09:40:27.054Z,5.38
2023-04-02T09:41:27.038Z,5.43
2023-04-02T09:42:27.072Z,5.53
2023-04-02T09:43:27.010Z,5.56
2023-04-02T09:44:26.994Z,5.57
2023-04-02T09:45:26.981Z,5.54
2023-04-02T09:46:26.983Z,5.44
2023-04-02T09:47:27.035Z,5.36
2023-04-02T09:48:26.945Z,5.44
2023-04-02T09:49:26.951Z,5.48
2023-04-02T09:50:26.917Z,5.54
2023-04-02T09:51:26.933Z,5.51
2023-04-02T09:52:26.930Z,5.62
2023-04-02T09:53:26.896Z,5.71
2023-04-02T09:54:26.892Z,5.89
2023-04-02T09:55:26.874Z,6.02
2023-04-02T09:56:26.852Z,6.08
2023-04-02T09:57:26.926Z,6.19
2023-04-02T09:58:26.815Z,6.24
2023-04-02T09:59:26.835Z,6.08
2023-04-02T10:00:41.572Z,6.01
2023-04-02T10:01:27.872Z,6.08
2023-04-02T10:02:26.875Z,6.12
2023-04-02T10:03:26.772Z,6.09
2023-04-02T10:04:26.826Z,6.02
2023-04-02T10:05:39.306Z,5.98
2023-04-02T10:06:27.725Z,5.87
2023-04-02T10:07:26.791Z,5.83
2023-04-02T10:08:26.713Z,5.86
2023-04-02T10:09:26.708Z,5.82
2023-04-02T10:10:26.694Z,5.72
2023-04-02T10:11:30.914Z,5.66
2023-04-02T10:12:27.717Z,5.65
2023-04-02T10:13:26.654Z,5.68
2023-04-02T10:14:26.658Z,5.73
2023-04-02T10:15:26.681Z,5.79
2023-04-02T10:16:27.189Z,5.73
2023-04-02T10:17:26.706Z,5.72
2023-04-02T10:18:26.620Z,5.75
2023-04-02T10:19:26.606Z,5.80
2023-04-02T10:20:26.592Z,5.76
2023-04-02T10:21:26.588Z,5.82
2023-04-02T10:22:26.606Z,5.84
2023-04-02T10:23:26.556Z,5.84
2023-04-02T10:24:26.537Z,5.83
2023-04-02T10:25:26.529Z,5.83
2023-04-02T10:26:26.527Z,5.93
2023-04-02T10:27:26.564Z,5.84
2023-04-02T10:28:26.476Z,5.79
2023-04-02T10:29:26.482Z,5.83
2023-04-02T10:30:26.483Z,5.91
2023-04-02T10:31:26.500Z,5.99
2023-04-02T10:32:26.558Z,5.86
2023-04-02T10:33:26.470Z,5.76
2023-04-02T10:34:26.420Z,5.84
2023-04-02T10:35:26.456Z,5.73
2023-04-02T10:36:26.404Z,5.64
2023-04-02T10:37:26.449Z,5.59
2023-04-02T10:38:26.371Z,5.41
2023-04-02T10:39:26.355Z,5.43
2023-04-02T10:40:26.345Z,5.46
2023-04-02T10:41:26.351Z,5.48
2023-04-02T10:42:26.331Z,5.41
2023-04-02T10:43:26.388Z,5.46
2023-04-02T10:44:26.346Z,5.53
2023-04-02T10:45:26.301Z,5.66
2023-04-02T10:46:26.324Z,5.71
2023-04-02T10:47:26.287Z,5.62
2023-04-02T10:48:26.321Z,5.57
2023-04-02T10:49:26.339Z,5.57
2023-04-02T10:50:26.251Z,5.59
2023-04-02T10:51:26.227Z,5.72
2023-04-02T10:52:26.222Z,5.79
2023-04-02T10:53:26.268Z,5.98
2023-04-02T10:54:26.193Z,6.20
2023-04-02T10:55:26.193Z,6.39
2023-04-02T10:56:26.175Z,6.39
2023-04-02T10:57:26.236Z,6.33
2023-04-02T10:58:26.228Z,6.44
2023-04-02T10:59:26.194Z,6.39
2023-04-02T11:00:26.111Z,6.67
2023-04-02T11:01:26.146Z,6.70
2023-04-02T11:02:26.230Z,6.81
2023-04-02T11:03:26.275Z,7.00
2023-04-02T11:04:26.086Z,7.00
2023-04-02T11:05:26.074Z,6.74
2023-04-02T11:06:26.060Z,6.92
2023-04-02T11:07:26.041Z,7.17
2023-04-02T11:08:26.092Z,7.11
2023-04-02T11:09:26.009Z,7.00
2023-04-02T11:10:26.033Z,6.82
2023-04-02T11:11:25.999Z,6.69
2023-04-02T11:12:26.001Z,6.79
2023-04-02T11:13:26.029Z,7.15
2023-04-02T11:14:25.959Z,7.15
2023-04-02T11:15:25.943Z,7.07
2023-04-02T11:16:25.966Z,6.99
2023-04-02T11:17:26.006Z,6.81
2023-04-02T11:18:26.009Z,6.87
2023-04-02T11:19:25.940Z,6.81
2023-04-02T11:20:25.912Z,6.96
2023-04-02T11:21:25.901Z,6.72
2023-04-02T11:22:25.872Z,6.66
2023-04-02T11:23:25.922Z,6.48
2023-04-02T11:24:25.874Z,6.51
2023-04-02T11:25:25.841Z,6.28
2023-04-02T11:26:25.806Z,6.33
2023-04-02T11:27:25.822Z,6.33
2023-04-02T11:28:25.866Z,6.41
2023-04-02T11:29:25.780Z,6.56
2023-04-02T11:30:25.780Z,6.64
2023-04-02T11:31:25.814Z,6.67
2023-04-02T11:32:25.791Z,6.70
2023-04-02T11:33:35.843Z,6.63
2023-04-02T11:34:26.760Z,6.59
2023-04-02T11:35:25.712Z,6.54
2023-04-02T11:36:25.755Z,6.59
2023-04-02T11:37:25.707Z,6.64
2023-04-02T11:38:25.761Z,6.69
2023-04-02T11:39:25.697Z,6.59
2023-04-02T11:40:25.660Z,6.63
2023-04-02T11:41:25.654Z,6.48
2023-04-02T11:42:25.651Z,6.42
2023-04-02T11:43:25.680Z,6.35
2023-04-02T11:44:25.622Z,6.36
2023-04-02T11:45:25.612Z,6.42
2023-04-02T11:46:25.641Z,6.28
2023-04-02T11:47:25.647Z,6.24
2023-04-02T11:48:25.612Z,6.22
2023-04-02T11:49:25.581Z,6.14
2023-04-02T11:50:25.559Z,6.09
2023-04-02T11:51:25.554Z,6.17
2023-04-02T11:52:25.530Z,6.22
2023-04-02T11:53:25.561Z,6.28
2023-04-02T11:54:25.485Z,6.24
2023-04-02T11:55:25.472Z,6.17
2023-04-02T11:56:25.467Z,6.20
2023-04-02T11:57:25.526Z,6.20
2023-04-02T11:58:25.513Z,6.20
2023-04-02T11:59:25.458Z,6.22
2023-04-02T12:00:25.448Z,6.14
2023-04-02T12:01:25.404Z,6.12
2023-04-02T12:02:25.602Z,6.16
2023-04-02T12:03:25.454Z,6.12
2023-04-02T12:04:25.373Z,6.11
2023-04-02T12:05:25.430Z,6.11
2023-04-02T12:06:25.355Z,6.12
2023-04-02T12:07:25.349Z,6.16
2023-04-02T12:08:25.408Z,6.22
2023-04-02T12:09:25.347Z,6.26
2023-04-02T12:10:25.322Z,6.22
2023-04-02T12:11:25.324Z,6.26
2023-04-02T12:12:25.306Z,6.33
2023-04-02T12:13:25.330Z,6.38
2023-04-02T12:14:25.277Z,6.38
2023-04-02T12:15:25.272Z,6.45
2023-04-02T12:16:25.263Z,6.48
2023-04-02T12:17:25.274Z,6.45
2023-04-02T12:18:25.265Z,6.52
2023-04-02T12:19:25.214Z,6.56
2023-04-02T12:20:25.189Z,6.48
2023-04-02T12:21:25.183Z,6.51
2023-04-02T12:22:25.174Z,6.54
2023-04-02T12:23:25.230Z,6.54
2023-04-02T12:24:25.163Z,6.49
2023-04-02T12:25:25.141Z,6.39
2023-04-02T12:26:25.129Z,6.44
2023-04-02T12:27:25.123Z,6.44
2023-04-02T12:28:25.158Z,6.39
2023-04-02T12:29:25.111Z,6.48
2023-04-02T12:30:25.073Z,6.57
2023-04-02T12:31:25.213Z,6.51
2023-04-02T12:32:25.954Z,6.48
2023-04-02T12:33:25.093Z,6.44
2023-04-02T12:34:25.060Z,6.39
2023-04-02T12:35:25.030Z,6.28
2023-04-02T12:36:25.011Z,6.19
2023-04-02T12:37:25.021Z,6.11
2023-04-02T12:38:25.042Z,6.19
2023-04-02T12:39:26.739Z,6.26
2023-04-02T12:40:24.956Z,6.31
2023-04-02T12:41:24.991Z,6.27
2023-04-02T12:42:24.950Z,6.31
2023-04-02T12:43:24.973Z,6.44
2023-04-02T12:44:24.935Z,6.52
2023-04-02T12:45:26.156Z,6.62
2023-04-02T12:46:24.914Z,6.69
2023-04-02T12:47:24.888Z,6.69
2023-04-02T12:48:24.918Z,6.70
2023-04-02T12:49:24.856Z,6.69
2023-04-02T12:50:24.951Z,6.56
2023-04-02T12:51:26.753Z,6.60
2023-04-02T12:52:24.823Z,6.69
2023-04-02T12:53:24.847Z,6.75
2023-04-02T12:54:24.816Z,6.82
2023-04-02T12:55:24.800Z,6.77
2023-04-02T12:56:24.785Z,6.84
2023-04-02T12:57:24.805Z,6.70
2023-04-02T12:58:24.844Z,6.79
2023-04-02T12:59:24.728Z,6.92
2023-04-02T13:00:24.741Z,6.93
2023-04-02T13:01:24.784Z,6.92
2023-04-02T13:02:24.737Z,6.97
2023-04-02T13:03:25.533Z,6.95
2023-04-02T13:04:24.741Z,6.88
2023-04-02T13:05:24.690Z,6.84
2023-04-02T13:06:24.684Z,6.81
2023-04-02T13:07:24.649Z,6.79
2023-04-02T13:08:24.712Z,6.69
2023-04-02T13:09:25.925Z,6.56
2023-04-02T13:10:24.623Z,6.52
2023-04-02T13:11:24.762Z,6.54
2023-04-02T13:12:24.616Z,6.60
2023-04-02T13:13:24.617Z,6.64
2023-04-02T13:14:24.559Z,6.67
2023-04-02T13:15:25.499Z,6.81
2023-04-02T13:16:24.592Z,6.96
2023-04-02T13:17:24.550Z,6.97
2023-04-02T13:18:24.640Z,7.13